Time;durP1;ratioP1;P1;durP2;ratioP2;P2;SDS_P1;SDS_P2;PMS_P1;PMS_P2;Temp;Humidity;BMP_temperature;BMP_pressure;BME280_temperature;BME280_humidity;BME280_pressure;Samples;Min_cycle;Max_cycle;Signal;HPM_P1;HPM_P2
2022/12/07 00:01:07;;;;;;;8.90;1.70;;;;;;;;;;5014326;28;20054;-79
2022/12/07 00:03:34;;;;;;;5.97;1.83;;;;;;;;;;5014560;28;20045;-79
2022/12/07 00:06:00;;;;;;;7.20;2.00;;;;;;;;;;5033421;28;20399;-79
2022/12/07 00:08:26;;;;;;;6.05;2.03;;;;;;;;;;5035608;28;20045;-79
2022/12/07 00:10:52;;;;;;;10.18;2.28;;;;;;;;;;5035827;28;20033;-79
2022/12/07 00:13:18;;;;;;;5.57;1.50;;;;;;;;;;5035801;28;20081;-79
2022/12/07 00:15:44;;;;;;;6.50;1.90;;;;;;;;;;5035383;28;20041;-79
2022/12/07 00:18:10;;;;;;;9.02;1.83;;;;;;;;;;5027494;28;20069;-78
2022/12/07 00:20:37;;;;;;;10.52;2.30;;;;;;;;;;5026880;28;20101;-78
2022/12/07 00:23:03;;;;;;;9.05;2.65;;;;;;;;;;5035650;28;20045;-78
2022/12/07 00:25:30;;;;;;;8.10;2.15;;;;;;;;;;5035113;28;20055;-78
2022/12/07 00:27:56;;;;;;;10.82;3.08;;;;;;;;;;5034932;28;20050;-78
2022/12/07 00:30:23;;;;;;;6.70;2.10;;;;;;;;;;5035061;28;20042;-78
2022/12/07 00:32:49;;;;;;;6.65;1.80;;;;;;;;;;5035133;28;20453;-78
2022/12/07 00:35:15;;;;;;;8.80;2.10;;;;;;;;;;5034115;28;20060;-78
2022/12/07 00:37:41;;;;;;;9.18;2.05;;;;;;;;;;5034944;28;20196;-78
2022/12/07 00:40:07;;;;;;;8.05;1.77;;;;;;;;;;5033911;28;20088;-79
2022/12/07 00:42:33;;;;;;;7.07;2.00;;;;;;;;;;5034840;28;20041;-78
2022/12/07 00:44:59;;;;;;;11.40;2.00;;;;;;;;;;5035019;28;20057;-78
2022/12/07 00:47:26;;;;;;;13.15;2.60;;;;;;;;;;5035968;28;20049;-78
2022/12/07 00:49:52;;;;;;;6.45;1.83;;;;;;;;;;5035684;28;20045;-78
2022/12/07 00:52:18;;;;;;;7.30;2.28;;;;;;;;;;5035192;28;20064;-79
2022/12/07 00:54:44;;;;;;;8.50;2.00;;;;;;;;;;5036210;28;20053;-78
2022/12/07 00:57:10;;;;;;;5.68;1.70;;;;;;;;;;5035350;28;20483;-78
2022/12/07 00:59:36;;;;;;;2.88;1.33;;;;;;;;;;5035275;28;20057;-79
2022/12/07 01:02:02;;;;;;;2.35;1.30;;;;;;;;;;5035304;28;20053;-78
2022/12/07 01:04:29;;;;;;;6.60;1.40;;;;;;;;;;5035320;28;20044;-79
2022/12/07 01:06:55;;;;;;;4.70;1.40;;;;;;;;;;5035128;28;20512;-79
2022/12/07 01:09:21;;;;;;;6.13;1.35;;;;;;;;;;5035254;28;20037;-79
2022/12/07 01:11:47;;;;;;;5.28;1.10;;;;;;;;;;5035368;28;20052;-79
2022/12/07 01:14:13;;;;;;;4.50;1.40;;;;;;;;;;5035147;28;20038;-79
2022/12/07 01:16:40;;;;;;;4.05;1.30;;;;;;;;;;5033973;28;20408;-79
2022/12/07 01:19:06;;;;;;;3.17;1.50;;;;;;;;;;5034535;28;20488;-79
2022/12/07 01:21:37;;;;;;;3.92;1.63;;;;;;;;;;5033417;28;20053;-79
2022/12/07 01:24:07;;;;;;;3.83;1.35;;;;;;;;;;5034891;28;20033;-79
2022/12/07 01:26:33;;;;;;;3.70;1.17;;;;;;;;;;5034697;28;20180;-79
2022/12/07 01:29:00;;;;;;;3.08;1.13;;;;;;;;;;5034201;28;20076;-79
2022/12/07 01:31:27;;;;;;;5.25;1.35;;;;;;;;;;5034719;28;20120;-79
2022/12/07 01:33:55;;;;;;;3.50;1.60;;;;;;;;;;5034371;28;20472;-79
2022/12/07 01:36:25;;;;;;;5.45;1.92;;;;;;;;;;5034224;28;20447;-79
2022/12/07 01:38:52;;;;;;;4.90;1.50;;;;;;;;;;5034475;28;20492;-79
2022/12/07 01:41:19;;;;;;;6.63;1.75;;;;;;;;;;5035714;28;20411;-80
2022/12/07 01:44:04;;;;;;;5.95;1.70;;;;;;;;;;5036647;28;20049;-79
2022/12/07 01:46:30;;;;;;;6.75;1.35;;;;;;;;;;5037589;28;20444;-79
2022/12/07 01:48:56;;;;;;;3.47;1.30;;;;;;;;;;5037698;28;20404;-79
2022/12/07 01:51:22;;;;;;;3.78;1.38;;;;;;;;;;5017963;28;20042;-79
2022/12/07 01:53:48;;;;;;;4.45;1.55;;;;;;;;;;5017546;28;20080;-78
2022/12/07 01:56:17;;;;;;;3.47;1.50;;;;;;;;;;5019739;28;20551;-78
2022/12/07 01:58:44;;;;;;;5.93;1.60;;;;;;;;;;5037782;28;20052;-78
2022/12/07 02:01:10;;;;;;;4.38;1.50;;;;;;;;;;5037976;28;20044;-78
2022/12/07 02:03:43;;;;;;;6.00;1.80;;;;;;;;;;5035984;28;20200;-78
2022/12/07 02:06:10;;;;;;;7.63;1.42;;;;;;;;;;5000304;28;20046;-79
2022/12/07 02:08:37;;;;;;;7.18;1.88;;;;;;;;;;5017003;28;20563;-79
2022/12/07 02:11:03;;;;;;;5.78;2.00;;;;;;;;;;5017093;28;20480;-79
2022/12/07 02:13:31;;;;;;;8.48;2.38;;;;;;;;;;5017244;28;20064;-78
2022/12/07 02:16:09;;;;;;;8.68;2.20;;;;;;;;;;5017407;28;20081;-78
2022/12/07 02:18:47;;;;;;;6.10;1.90;;;;;;;;;;5016594;28;20058;-78
2022/12/07 02:21:16;;;;;;;8.02;1.98;;;;;;;;;;5034322;28;20053;-79
2022/12/07 02:23:42;;;;;;;9.00;2.47;;;;;;;;;;5036906;28;20049;-79
2022/12/07 02:26:14;;;;;;;11.40;2.17;;;;;;;;;;5036900;28;20129;-79
2022/12/07 02:29:00;;;;;;;7.55;2.20;;;;;;;;;;5036779;28;20045;-79
2022/12/07 02:31:29;;;;;;;10.07;2.30;;;;;;;;;;5035302;28;20124;-78
2022/12/07 02:34:00;;;;;;;8.70;1.98;;;;;;;;;;5035013;28;20042;-78
2022/12/07 02:36:29;;;;;;;11.77;2.10;;;;;;;;;;5037170;28;20077;-78
2022/12/07 02:38:58;;;;;;;8.75;2.05;;;;;;;;;;5035925;28;20042;-79
2022/12/07 02:41:36;;;;;;;9.93;2.13;;;;;;;;;;5036263;28;20046;-78
2022/12/07 02:44:04;;;;;;;6.00;1.90;;;;;;;;;;5036790;28;20133;-78
2022/12/07 02:46:36;;;;;;;10.30;2.17;;;;;;;;;;5035976;28;20077;-78
2022/12/07 02:51:47;;;;;;;9.40;2.55;;;;;;;;;;5036128;28;20046;-78
2022/12/07 02:54:14;;;;;;;6.88;1.98;;;;;;;;;;5039772;28;20077;-78
2022/12/07 02:56:48;;;;;;;7.50;2.28;;;;;;;;;;5041153;28;20077;-78
2022/12/07 02:59:14;;;;;;;8.57;2.00;;;;;;;;;;5038698;28;20096;-78
2022/12/07 03:01:59;;;;;;;7.75;1.90;;;;;;;;;;5036228;28;20049;-78
2022/12/07 03:04:25;;;;;;;8.38;1.75;;;;;;;;;;5035662;28;20045;-79
2022/12/07 03:06:55;;;;;;;7.18;1.90;;;;;;;;;;5018195;28;20045;-78
2022/12/07 03:09:22;;;;;;;7.82;2.50;;;;;;;;;;5036830;28;20052;-79
2022/12/07 03:11:50;;;;;;;7.82;1.95;;;;;;;;;;5036482;28;20048;-78
2022/12/07 03:14:24;;;;;;;4.32;1.60;;;;;;;;;;5036076;28;20049;-78
2022/12/07 03:16:58;;;;;;;5.65;1.48;;;;;;;;;;5035925;28;20052;-78
2022/12/07 03:19:24;;;;;;;5.93;1.80;;;;;;;;;;5035548;28;20106;-79
2022/12/07 03:21:54;;;;;;;4.65;1.42;;;;;;;;;;5035450;28;20116;-78
2022/12/07 03:24:22;;;;;;;5.90;1.73;;;;;;;;;;5035855;28;20073;-78
2022/12/07 03:26:51;;;;;;;8.88;2.17;;;;;;;;;;5035654;28;20059;-78
2022/12/07 03:29:20;;;;;;;6.03;1.50;;;;;;;;;;5035692;28;20041;-78
2022/12/07 03:31:48;;;;;;;7.07;1.67;;;;;;;;;;5035230;28;20080;-78
2022/12/07 03:34:20;;;;;;;5.43;1.90;;;;;;;;;;5036179;28;20041;-78
2022/12/07 03:37:05;;;;;;;3.75;1.38;;;;;;;;;;5034456;28;20053;-78
2022/12/07 03:39:36;;;;;;;2.45;1.02;;;;;;;;;;5034639;28;20041;-78
2022/12/07 03:42:04;;;;;;;3.65;1.10;;;;;;;;;;5034541;28;20506;-78
2022/12/07 03:44:31;;;;;;;4.53;1.38;;;;;;;;;;5034701;28;20136;-78
2022/12/07 03:46:57;;;;;;;4.88;1.60;;;;;;;;;;5034725;28;20041;-78
2022/12/07 03:49:28;;;;;;;4.88;1.27;;;;;;;;;;5034576;28;20088;-77
2022/12/07 03:51:57;;;;;;;6.55;1.48;;;;;;;;;;5034387;28;20042;-77
2022/12/07 03:54:38;;;;;;;5.53;1.67;;;;;;;;;;5034209;28;20037;-77
2022/12/07 03:57:05;;;;;;;7.07;2.13;;;;;;;;;;5034673;28;20048;-77
2022/12/07 03:59:31;;;;;;;6.28;2.10;;;;;;;;;;5033942;28;20396;-77
2022/12/07 04:02:01;;;;;;;10.00;1.70;;;;;;;;;;5034670;28;20048;-78
2022/12/07 04:04:28;;;;;;;6.60;1.77;;;;;;;;;;5034599;28;20045;-78
2022/12/07 04:06:54;;;;;;;8.70;2.17;;;;;;;;;;5034761;28;20052;-78
2022/12/07 04:09:20;;;;;;;8.98;2.42;;;;;;;;;;5034619;28;20132;-78
2022/12/07 04:11:46;;;;;;;9.20;2.45;;;;;;;;;;5034906;28;20045;-78
2022/12/07 04:14:19;;;;;;;6.13;1.55;;;;;;;;;;5035035;28;20037;-78
2022/12/07 04:16:45;;;;;;;6.75;2.30;;;;;;;;;;5034465;28;20412;-77
2022/12/07 04:19:12;;;;;;;7.43;1.95;;;;;;;;;;5034420;28;20064;-78
2022/12/07 04:21:38;;;;;;;8.32;2.00;;;;;;;;;;5033931;28;20057;-78
2022/12/07 04:24:04;;;;;;;8.27;2.25;;;;;;;;;;5032483;28;20129;-78
2022/12/07 04:26:30;;;;;;;10.48;2.50;;;;;;;;;;5014485;28;20473;-78
2022/12/07 04:28:57;;;;;;;9.27;2.90;;;;;;;;;;5015015;28;20084;-78
2022/12/07 04:31:23;;;;;;;8.18;2.08;;;;;;;;;;5013748;28;20108;-78
2022/12/07 04:33:49;;;;;;;8.52;2.10;;;;;;;;;;5015188;28;20071;-78
2022/12/07 04:36:15;;;;;;;10.77;2.28;;;;;;;;;;5015249;28;20046;-78
2022/12/07 04:38:41;;;;;;;8.93;2.38;;;;;;;;;;5015871;28;20133;-78
2022/12/07 04:41:08;;;;;;;7.78;1.92;;;;;;;;;;5034756;28;20045;-78
2022/12/07 04:43:34;;;;;;;12.73;2.63;;;;;;;;;;5035061;28;20046;-78
2022/12/07 04:46:00;;;;;;;7.05;2.20;;;;;;;;;;5034831;28;20045;-78
2022/12/07 04:48:26;;;;;;;10.82;2.63;;;;;;;;;;5034843;28;20053;-78
2022/12/07 04:50:52;;;;;;;9.95;2.10;;;;;;;;;;5034650;28;20056;-78
2022/12/07 04:53:19;;;;;;;12.27;2.47;;;;;;;;;;5035617;28;20049;-78
2022/12/07 04:55:46;;;;;;;7.30;2.22;;;;;;;;;;5034463;28;20447;-78
2022/12/07 04:58:12;;;;;;;12.65;2.10;;;;;;;;;;5014087;28;20512;-78
2022/12/07 05:00:38;;;;;;;9.07;2.17;;;;;;;;;;5015145;28;20041;-78
2022/12/07 05:03:04;;;;;;;8.02;2.42;;;;;;;;;;5015274;28;20416;-78
2022/12/07 05:05:30;;;;;;;6.80;2.00;;;;;;;;;;5019893;28;20076;-78
2022/12/07 05:07:56;;;;;;;6.18;1.98;;;;;;;;;;5034345;28;20525;-78
2022/12/07 05:10:23;;;;;;;8.60;1.65;;;;;;;;;;5034796;28;20116;-78
2022/12/07 05:12:49;;;;;;;6.55;1.60;;;;;;;;;;5034036;28;20049;-78
2022/12/07 05:15:15;;;;;;;5.53;2.28;;;;;;;;;;5034437;28;20411;-78
2022/12/07 05:17:41;;;;;;;4.80;1.60;;;;;;;;;;5037609;28;20041;-78
2022/12/07 05:20:08;;;;;;;8.95;1.83;;;;;;;;;;5037398;28;20506;-78
2022/12/07 05:22:34;;;;;;;7.57;1.88;;;;;;;;;;5027350;28;20176;-78
2022/12/07 05:25:00;;;;;;;5.05;1.70;;;;;;;;;;5017455;28;20042;-78
2022/12/07 05:27:26;;;;;;;3.20;1.35;;;;;;;;;;5017618;28;20076;-78
2022/12/07 05:29:52;;;;;;;4.60;1.48;;;;;;;;;;5017700;28;20369;-78
2022/12/07 05:32:18;;;;;;;9.63;1.75;;;;;;;;;;5022695;28;20048;-78
2022/12/07 05:34:44;;;;;;;7.57;1.55;;;;;;;;;;5037047;28;20468;-78
2022/12/07 05:37:11;;;;;;;8.52;1.85;;;;;;;;;;5033513;28;20460;-78
2022/12/07 05:39:40;;;;;;;8.40;1.95;;;;;;;;;;5037710;28;20089;-78
2022/12/07 05:42:12;;;;;;;5.30;1.40;;;;;;;;;;5037756;28;20118;-78
2022/12/07 05:44:41;;;;;;;8.18;2.30;;;;;;;;;;5037103;28;20105;-78
2022/12/07 05:47:07;;;;;;;6.30;1.80;;;;;;;;;;5019780;28;20491;-78
2022/12/07 05:49:33;;;;;;;3.72;1.65;;;;;;;;;;5037222;28;20045;-78
2022/12/07 05:52:00;;;;;;;7.65;1.90;;;;;;;;;;5035614;28;20124;-78
2022/12/07 05:54:26;;;;;;;13.88;2.03;;;;;;;;;;5036973;28;20056;-78
2022/12/07 05:56:52;;;;;;;8.07;2.35;;;;;;;;;;5037749;28;20076;-78
2022/12/07 05:59:24;;;;;;;7.57;2.08;;;;;;;;;;5037992;28;20128;-78
2022/12/07 06:01:50;;;;;;;7.30;2.15;;;;;;;;;;5040244;28;20049;-78
2022/12/07 06:04:17;;;;;;;10.68;2.17;;;;;;;;;;5042780;28;20049;-78
2022/12/07 06:06:43;;;;;;;9.65;2.40;;;;;;;;;;5040307;28;20103;-78
2022/12/07 06:09:09;;;;;;;8.82;1.90;;;;;;;;;;5037724;28;20489;-78
2022/12/07 06:14:22;;;;;;;7.05;1.60;;;;;;;;;;5038057;28;20041;-78
2022/12/07 06:16:49;;;;;;;8.27;2.22;;;;;;;;;;5036565;28;20398;-78
2022/12/07 06:19:15;;;;;;;4.68;1.77;;;;;;;;;;5027582;28;20057;-78
2022/12/07 06:21:41;;;;;;;8.00;2.38;;;;;;;;;;5016829;28;20181;-78
2022/12/07 06:24:07;;;;;;;7.70;2.20;;;;;;;;;;5016079;28;20054;-78
2022/12/07 06:26:33;;;;;;;7.32;2.00;;;;;;;;;;5016177;28;20053;-78
2022/12/07 06:28:59;;;;;;;11.05;2.17;;;;;;;;;;5016601;28;20497;-78
2022/12/07 06:31:25;;;;;;;9.80;2.00;;;;;;;;;;5025449;28;20416;-78
2022/12/07 06:33:51;;;;;;;6.78;2.20;;;;;;;;;;5037003;28;20045;-78
2022/12/07 06:36:17;;;;;;;6.32;1.95;;;;;;;;;;5035184;28;20060;-78
2022/12/07 06:38:43;;;;;;;7.32;1.75;;;;;;;;;;5037923;28;20045;-78
2022/12/07 06:41:09;;;;;;;6.25;1.90;;;;;;;;;;5036730;28;20052;-78
2022/12/07 06:43:35;;;;;;;7.05;1.60;;;;;;;;;;5036891;28;20041;-78
2022/12/07 06:46:01;;;;;;;6.15;2.00;;;;;;;;;;5036419;28;20056;-78
2022/12/07 06:48:27;;;;;;;4.10;1.85;;;;;;;;;;5036846;28;20045;-78
2022/12/07 06:50:53;;;;;;;6.50;2.00;;;;;;;;;;5037221;28;20046;-78
2022/12/07 06:53:19;;;;;;;7.20;1.70;;;;;;;;;;5036382;28;20041;-78
2022/12/07 06:55:45;;;;;;;5.55;1.80;;;;;;;;;;5036329;28;20053;-78
2022/12/07 06:58:11;;;;;;;4.65;1.60;;;;;;;;;;5036468;28;20392;-78
2022/12/07 07:00:37;;;;;;;9.70;2.42;;;;;;;;;;5035608;28;20049;-78
2022/12/07 07:03:09;;;;;;;12.70;2.00;;;;;;;;;;5036094;28;20048;-78
2022/12/07 07:05:35;;;;;;;4.63;1.88;;;;;;;;;;5035776;28;20044;-78
2022/12/07 07:08:02;;;;;;;7.78;1.88;;;;;;;;;;5033630;28;20050;-78
2022/12/07 07:10:28;;;;;;;9.90;2.13;;;;;;;;;;5036648;28;20046;-78
2022/12/07 07:12:54;;;;;;;9.10;2.10;;;;;;;;;;5037914;28;20048;-79
2022/12/07 07:15:20;;;;;;;8.15;2.70;;;;;;;;;;5027435;28;20045;-78
2022/12/07 07:17:46;;;;;;;9.25;2.45;;;;;;;;;;5037878;28;20049;-79
2022/12/07 07:20:13;;;;;;;11.02;2.30;;;;;;;;;;5035616;28;20057;-79
2022/12/07 07:22:39;;;;;;;9.80;2.60;;;;;;;;;;5034245;28;20095;-79
2022/12/07 07:25:05;;;;;;;8.48;2.05;;;;;;;;;;5035803;28;20567;-78
2022/12/07 07:27:31;;;;;;;10.80;2.38;;;;;;;;;;5038271;28;20114;-79
2022/12/07 07:29:57;;;;;;;6.47;2.17;;;;;;;;;;5039539;28;20091;-79
2022/12/07 07:32:23;;;;;;;8.80;2.30;;;;;;;;;;5034648;28;20048;-79
2022/12/07 07:34:52;;;;;;;12.23;2.33;;;;;;;;;;5028028;28;20519;-79
2022/12/07 07:37:18;;;;;;;7.75;2.15;;;;;;;;;;5039626;28;20067;-80
2022/12/07 07:39:44;;;;;;;9.75;2.35;;;;;;;;;;5021258;28;20042;-80
2022/12/07 07:42:10;;;;;;;6.68;1.90;;;;;;;;;;5020182;28;20117;-79
2022/12/07 07:44:36;;;;;;;6.18;1.90;;;;;;;;;;5024235;28;20053;-80
2022/12/07 07:47:03;;;;;;;8.13;2.05;;;;;;;;;;5027008;28;20408;-80
2022/12/07 07:49:29;;;;;;;5.05;1.63;;;;;;;;;;5021804;28;20599;-80
2022/12/07 07:51:55;;;;;;;7.65;2.00;;;;;;;;;;5035835;28;20037;-79
2022/12/07 07:54:21;;;;;;;2.78;1.10;;;;;;;;;;5041418;28;20504;-80
2022/12/07 07:56:47;;;;;;;2.40;1.10;;;;;;;;;;5040330;28;20094;-80
2022/12/07 07:59:14;;;;;;;2.45;1.20;;;;;;;;;;5039376;28;20045;-80
2022/12/07 08:01:40;;;;;;;5.72;1.48;;;;;;;;;;5030104;28;20049;-79
2022/12/07 08:04:06;;;;;;;3.65;1.55;;;;;;;;;;5019892;28;20072;-80
2022/12/07 08:06:32;;;;;;;4.53;1.77;;;;;;;;;;5035893;28;20041;-80
2022/12/07 08:08:59;;;;;;;3.88;1.52;;;;;;;;;;5024871;28;20056;-79
2022/12/07 08:11:25;;;;;;;3.00;1.60;;;;;;;;;;5016501;28;20129;-78
2022/12/07 08:13:51;;;;;;;4.90;1.80;;;;;;;;;;5024135;28;20056;-78
2022/12/07 08:16:18;;;;;;;5.72;1.88;;;;;;;;;;5025340;28;20100;-78
2022/12/07 08:18:44;;;;;;;6.80;1.80;;;;;;;;;;5030580;28;20460;-75
2022/12/07 08:21:12;;;;;;;6.45;2.00;;;;;;;;;;5035675;28;20060;-75
2022/12/07 08:23:38;;;;;;;7.85;2.08;;;;;;;;;;5027016;28;20046;-74
2022/12/07 08:26:08;;;;;;;6.00;1.90;;;;;;;;;;5031436;28;20083;-80
2022/12/07 08:28:43;;;;;;;6.93;1.52;;;;;;;;;;5036361;28;20038;-79
2022/12/07 08:31:11;;;;;;;7.15;1.70;;;;;;;;;;5039111;28;20064;-79
2022/12/07 08:33:38;;;;;;;6.50;1.80;;;;;;;;;;5030009;28;20476;-78
2022/12/07 08:36:13;;;;;;;5.80;2.25;;;;;;;;;;5018087;28;20053;-78
2022/12/07 08:38:40;;;;;;;8.90;2.28;;;;;;;;;;5020973;28;20060;-76
2022/12/07 08:41:06;;;;;;;9.82;2.65;;;;;;;;;;5038022;28;20106;-76
2022/12/07 08:43:32;;;;;;;8.45;2.08;;;;;;;;;;5034915;28;20049;-76
2022/12/07 08:46:01;;;;;;;4.97;1.50;;;;;;;;;;5028452;28;20077;-80
2022/12/07 08:48:27;;;;;;;3.30;1.10;;;;;;;;;;5038498;28;20520;-76
2022/12/07 08:50:54;;;;;;;5.18;1.20;;;;;;;;;;5020749;28;20049;-76
2022/12/07 08:53:25;;;;;;;3.63;1.20;;;;;;;;;;5024575;28;20093;-77
2022/12/07 08:55:51;;;;;;;3.10;1.20;;;;;;;;;;5023299;28;20042;-76
2022/12/07 08:58:17;;;;;;;2.55;1.30;;;;;;;;;;5017802;28;20057;-76
2022/12/07 09:00:43;;;;;;;3.25;1.20;;;;;;;;;;5034510;28;20079;-77
2022/12/07 09:03:10;;;;;;;3.53;1.48;;;;;;;;;;5035284;28;20049;-77
2022/12/07 09:05:36;;;;;;;6.60;1.67;;;;;;;;;;5035676;28;20116;-77
2022/12/07 09:08:02;;;;;;;4.25;1.35;;;;;;;;;;5035624;28;20494;-76
2022/12/07 09:10:29;;;;;;;3.60;1.67;;;;;;;;;;5033303;28;20053;-77
2022/12/07 09:12:55;;;;;;;9.13;1.73;;;;;;;;;;5032680;28;20037;-76
2022/12/07 09:15:21;;;;;;;5.20;1.80;;;;;;;;;;5039519;28;20095;-77
2022/12/07 09:17:47;;;;;;;7.30;1.83;;;;;;;;;;5037764;28;20052;-76
2022/12/07 09:20:13;;;;;;;8.40;1.95;;;;;;;;;;5028098;28;20059;-77
2022/12/07 09:22:39;;;;;;;4.93;2.10;;;;;;;;;;5024127;28;20121;-77
2022/12/07 09:25:06;;;;;;;10.95;2.28;;;;;;;;;;5030194;28;20046;-77
2022/12/07 09:27:32;;;;;;;7.85;2.28;;;;;;;;;;5025242;28;20099;-77
2022/12/07 09:29:58;;;;;;;9.68;2.25;;;;;;;;;;5019809;28;20484;-77
2022/12/07 09:32:24;;;;;;;5.80;1.90;;;;;;;;;;5022417;28;20045;-77
2022/12/07 09:34:50;;;;;;;6.90;1.70;;;;;;;;;;5032345;28;20045;-77
2022/12/07 09:37:21;;;;;;;4.72;1.80;;;;;;;;;;5034021;28;20076;-77
2022/12/07 09:39:47;;;;;;;6.03;1.88;;;;;;;;;;5033580;28;20103;-77
2022/12/07 09:42:45;;;;;;;4.05;1.77;;;;;;;;;;5029899;28;20488;-76
2022/12/07 09:45:15;;;;;;;5.40;1.50;;;;;;;;;;5035169;28;20049;-77
2022/12/07 09:47:42;;;;;;;4.38;1.50;;;;;;;;;;5028848;28;20044;-76
2022/12/07 09:50:13;;;;;;;5.93;1.52;;;;;;;;;;5034252;28;20049;-76
2022/12/07 09:52:39;;;;;;;3.95;1.23;;;;;;;;;;5033364;28;20038;-77
2022/12/07 09:55:09;;;;;;;6.15;1.42;;;;;;;;;;5033184;28;20049;-77
2022/12/07 09:57:36;;;;;;;3.88;1.88;;;;;;;;;;5034722;28;20404;-76
2022/12/07 10:00:07;;;;;;;6.70;1.50;;;;;;;;;;5034619;28;20045;-77
2022/12/07 10:02:38;;;;;;;4.57;1.80;;;;;;;;;;5025357;28;20038;-77
2022/12/07 10:05:05;;;;;;;2.85;1.20;;;;;;;;;;5034813;28;20510;-76
2022/12/07 10:07:31;;;;;;;4.43;1.77;;;;;;;;;;5033507;28;20125;-76
2022/12/07 10:09:58;;;;;;;6.88;1.95;;;;;;;;;;5019781;28;20045;-76
2022/12/07 10:12:24;;;;;;;6.22;1.85;;;;;;;;;;5031681;28;20084;-76
2022/12/07 10:14:55;;;;;;;6.50;1.90;;;;;;;;;;5017492;28;20052;-77
2022/12/07 10:17:32;;;;;;;8.77;2.10;;;;;;;;;;5036056;28;20554;-76
2022/12/07 10:20:19;;;;;;;9.23;2.08;;;;;;;;;;5025640;28;20118;-75
2022/12/07 10:23:15;;;;;;;4.68;1.75;;;;;;;;;;5046533;28;20054;-76
2022/12/07 10:25:42;;;;;;;2.85;1.50;;;;;;;;;;5033414;28;20045;-76
2022/12/07 10:28:08;;;;;;;4.22;1.40;;;;;;;;;;5037982;28;20064;-75
2022/12/07 10:30:46;;;;;;;2.72;1.40;;;;;;;;;;5050475;28;20045;-77
2022/12/07 10:33:28;;;;;;;4.38;1.63;;;;;;;;;;5023432;28;20369;-77
2022/12/07 10:35:54;;;;;;;2.58;1.42;;;;;;;;;;5017302;28;20042;-76
2022/12/07 10:38:20;;;;;;;5.55;1.42;;;;;;;;;;5029609;28;20048;-76
2022/12/07 10:41:03;;;;;;;4.95;1.52;;;;;;;;;;5033774;28;20121;-77
2022/12/07 10:43:29;;;;;;;3.45;1.77;;;;;;;;;;5028164;28;20447;-76
2022/12/07 10:45:55;;;;;;;5.78;1.67;;;;;;;;;;5025573;28;20389;-77
2022/12/07 10:48:34;;;;;;;2.85;1.40;;;;;;;;;;5022005;28;20045;-77
2022/12/07 10:51:09;;;;;;;2.47;1.33;;;;;;;;;;5033448;28;20128;-76
2022/12/07 10:53:41;;;;;;;4.75;1.80;;;;;;;;;;5038272;28;20049;-79
2022/12/07 10:56:24;;;;;;;4.20;1.40;;;;;;;;;;5037995;28;20091;-76
2022/12/07 10:59:02;;;;;;;3.70;1.35;;;;;;;;;;5028080;28;20068;-77
2022/12/07 11:01:37;;;;;;;6.13;1.70;;;;;;;;;;5019247;28;20054;-76
2022/12/07 11:04:09;;;;;;;5.60;2.10;;;;;;;;;;5015770;28;20057;-76
2022/12/07 11:06:47;;;;;;;5.40;1.50;;;;;;;;;;5020901;28;20042;-76
2022/12/07 11:09:32;;;;;;;3.92;1.92;;;;;;;;;;5029435;28;20045;-76
2022/12/07 11:12:17;;;;;;;5.18;1.83;;;;;;;;;;5028328;28;20163;-76
2022/12/07 11:14:55;;;;;;;6.57;1.80;;;;;;;;;;5016800;28;20065;-83
2022/12/07 11:17:32;;;;;;;4.68;1.70;;;;;;;;;;5029171;28;20049;-77
2022/12/07 11:20:05;;;;;;;6.40;1.75;;;;;;;;;;5037705;28;20061;-78
2022/12/07 11:22:44;;;;;;;8.10;2.17;;;;;;;;;;5026796;28;20049;-77
2022/12/07 11:25:10;;;;;;;8.20;1.90;;;;;;;;;;5030957;28;20052;-77
2022/12/07 11:27:56;;;;;;;7.32;1.67;;;;;;;;;;5036596;28;20041;-76
2022/12/07 11:30:24;;;;;;;5.25;1.70;;;;;;;;;;5027805;28;20073;-76
2022/12/07 11:33:08;;;;;;;7.82;1.90;;;;;;;;;;5036354;28;20120;-77
2022/12/07 11:35:34;;;;;;;3.28;1.30;;;;;;;;;;5036069;28;20045;-77
2022/12/07 11:38:12;;;;;;;8.20;2.10;;;;;;;;;;5036236;28;20056;-77
2022/12/07 11:40:39;;;;;;;4.80;1.65;;;;;;;;;;5034639;28;20049;-77
2022/12/07 11:43:05;;;;;;;4.30;1.70;;;;;;;;;;5024740;28;20041;-76
2022/12/07 11:45:33;;;;;;;8.93;2.10;;;;;;;;;;5022976;28;20057;-80
2022/12/07 11:48:11;;;;;;;4.68;1.95;;;;;;;;;;5024990;28;20047;-80
2022/12/07 11:50:42;;;;;;;7.90;1.85;;;;;;;;;;5036244;28;20429;-77
2022/12/07 11:53:08;;;;;;;4.05;1.63;;;;;;;;;;5019539;28;20046;-77
2022/12/07 11:55:53;;;;;;;5.90;1.80;;;;;;;;;;5022542;28;20038;-78
2022/12/07 11:58:25;;;;;;;6.22;1.70;;;;;;;;;;5018439;28;20165;-78
2022/12/07 12:00:54;;;;;;;4.30;1.38;;;;;;;;;;5028352;28;20096;-77
2022/12/07 12:03:32;;;;;;;7.65;1.40;;;;;;;;;;5027685;28;20049;-76
2022/12/07 12:05:58;;;;;;;3.45;1.40;;;;;;;;;;5027934;28;20059;-76
2022/12/07 12:08:33;;;;;;;4.50;1.40;;;;;;;;;;5027636;28;20045;-76
2022/12/07 12:11:18;;;;;;;3.30;1.27;;;;;;;;;;5009348;28;20044;-76
2022/12/07 12:13:57;;;;;;;4.82;1.65;;;;;;;;;;5033589;28;20045;-76
2022/12/07 12:16:35;;;;;;;5.72;1.90;;;;;;;;;;5034181;28;20045;-76
2022/12/07 12:19:11;;;;;;;3.67;1.50;;;;;;;;;;5034057;28;20056;-76
2022/12/07 12:21:37;;;;;;;;;;;;;;;;;;5022504;28;20054;-76
2022/12/07 12:24:24;;;;;;;7.17;1.70;;;;;;;;;;5019381;28;19921;-76
2022/12/07 12:26:57;;;;;;;7.07;2.00;;;;;;;;;;5034388;28;20546;-76
2022/12/07 12:29:32;;;;;;;6.00;1.60;;;;;;;;;;5026444;28;20163;-77
2022/12/07 12:32:24;;;;;;;8.27;2.20;;;;;;;;;;5038515;28;20049;-76
2022/12/07 12:34:54;;;;;;;9.10;3.38;;;;;;;;;;5035189;28;20068;-76
2022/12/07 12:37:35;;;;;;;7.18;2.85;;;;;;;;;;5020338;28;20045;-76
2022/12/07 12:40:16;;;;;;;8.07;2.42;;;;;;;;;;5034102;28;20046;-76
2022/12/07 12:42:53;;;;;;;7.53;2.80;;;;;;;;;;5021589;28;20041;-76
2022/12/07 12:45:26;;;;;;;6.05;3.00;;;;;;;;;;5033879;28;20369;-76
2022/12/07 12:48:01;;;;;;;7.68;2.55;;;;;;;;;;5032235;28;20042;-77
2022/12/07 12:50:38;;;;;;;6.50;2.20;;;;;;;;;;5033616;28;20130;-77
2022/12/07 12:53:03;;;;;;;;;;;;;;;;;;5020291;28;20134;-77
2022/12/07 12:55:42;;;;;;;7.37;2.40;;;;;;;;;;5032822;28;19987;-76
2022/12/07 12:58:20;;;;;;;10.32;3.67;;;;;;;;;;5019410;28;20041;-76
2022/12/07 13:00:47;;;;;;;6.97;2.95;;;;;;;;;;5033310;28;20473;-76
2022/12/07 13:03:26;;;;;;;4.65;1.77;;;;;;;;;;5033296;28;20041;-76
2022/12/07 13:06:11;;;;;;;5.43;1.60;;;;;;;;;;5029869;28;20057;-76
2022/12/07 13:08:41;;;;;;;3.15;1.30;;;;;;;;;;5014724;28;20057;-76
2022/12/07 13:11:20;;;;;;;4.22;1.50;;;;;;;;;;5015269;28;20567;-76
2022/12/07 13:13:46;;;;;;;4.25;1.40;;;;;;;;;;5035288;28;20503;-76
2022/12/07 13:16:12;;;;;;;4.22;1.50;;;;;;;;;;5020854;28;20112;-76
2022/12/07 13:18:38;;;;;;;3.33;1.58;;;;;;;;;;5029164;28;20093;-76
2022/12/07 13:21:07;;;;;;;2.47;1.42;;;;;;;;;;5015636;28;20091;-76
2022/12/07 13:23:46;;;;;;;3.22;1.45;;;;;;;;;;5030483;28;20038;-76
2022/12/07 13:26:12;;;;;;;3.70;1.30;;;;;;;;;;5034354;28;20128;-76
2022/12/07 13:28:40;;;;;;;6.88;1.58;;;;;;;;;;5021047;28;20508;-76
2022/12/07 13:31:21;;;;;;;4.53;1.40;;;;;;;;;;5016083;28;20046;-76
2022/12/07 13:33:48;;;;;;;4.40;1.60;;;;;;;;;;5035387;28;20076;-76
2022/12/07 13:36:20;;;;;;;3.83;1.73;;;;;;;;;;5036683;28;20038;-76
2022/12/07 13:38:51;;;;;;;7.57;2.42;;;;;;;;;;5055640;28;20041;-76
2022/12/07 13:41:19;;;;;;;4.32;1.60;;;;;;;;;;5020275;28;20038;-76
2022/12/07 13:43:45;;;;;;;6.65;1.67;;;;;;;;;;5032335;28;20046;-77
2022/12/07 13:46:17;;;;;;;7.57;1.90;;;;;;;;;;5021694;28;20479;-76
2022/12/07 13:48:47;;;;;;;8.57;1.95;;;;;;;;;;5029719;28;20049;-80
2022/12/07 13:51:19;;;;;;;4.28;1.52;;;;;;;;;;5039076;28;20037;-80
2022/12/07 13:53:53;;;;;;;1.42;0.95;;;;;;;;;;5038831;28;20044;-79
2022/12/07 13:56:21;;;;;;;4.75;1.60;;;;;;;;;;5021407;28;20136;-80
2022/12/07 13:58:48;;;;;;;3.10;1.55;;;;;;;;;;5019272;28;20046;-80
2022/12/07 14:01:14;;;;;;;3.85;1.60;;;;;;;;;;5020095;28;20488;-79
2022/12/07 14:03:41;;;;;;;4.43;1.50;;;;;;;;;;5025850;28;20057;-78
2022/12/07 14:06:13;;;;;;;3.05;1.15;;;;;;;;;;5027397;28;20468;-77
2022/12/07 14:08:39;;;;;;;5.35;1.63;;;;;;;;;;5024306;28;20041;-77
2022/12/07 14:11:08;;;;;;;4.65;1.50;;;;;;;;;;5036622;28;20116;-76
2022/12/07 14:13:40;;;;;;;3.55;1.50;;;;;;;;;;5029772;28;20045;-76
2022/12/07 14:16:21;;;;;;;2.30;1.40;;;;;;;;;;5030086;28;20112;-76
2022/12/07 14:18:47;;;;;;;2.85;1.50;;;;;;;;;;5022870;28;20140;-76
2022/12/07 14:21:13;;;;;;;3.40;1.17;;;;;;;;;;5030912;28;20049;-76
2022/12/07 14:23:40;;;;;;;5.28;1.40;;;;;;;;;;5025364;28;20485;-76
2022/12/07 14:26:16;;;;;;;3.60;1.30;;;;;;;;;;5036713;28;20045;-76
2022/12/07 14:28:43;;;;;;;3.78;1.25;;;;;;;;;;5035536;28;20476;-76
2022/12/07 14:31:17;;;;;;;4.90;1.67;;;;;;;;;;5017169;28;20038;-76
2022/12/07 14:33:43;;;;;;;5.97;1.70;;;;;;;;;;5030949;28;20049;-76
2022/12/07 14:36:11;;;;;;;5.72;1.58;;;;;;;;;;5017682;28;20085;-76
2022/12/07 14:38:37;;;;;;;7.10;1.70;;;;;;;;;;5021638;28;20049;-76
2022/12/07 14:43:49;;;;;;;6.10;1.65;;;;;;;;;;5031433;28;20133;-76
2022/12/07 14:46:15;;;;;;;3.65;1.80;;;;;;;;;;5037741;28;20041;-76
2022/12/07 14:48:41;;;;;;;8.93;2.80;;;;;;;;;;5034010;28;20041;-76
2022/12/07 14:51:12;;;;;;;9.35;4.07;;;;;;;;;;5035782;28;20159;-81
2022/12/07 14:53:40;;;;;;;11.98;5.53;;;;;;;;;;5015331;28;20064;-76
2022/12/07 14:56:07;;;;;;;14.70;4.82;;;;;;;;;;5017893;28;20535;-76
2022/12/07 14:58:33;;;;;;;8.95;4.45;;;;;;;;;;5025601;28;20040;-76
2022/12/07 15:00:59;;;;;;;7.95;4.40;;;;;;;;;;5036625;28;20049;-77
2022/12/07 15:03:25;;;;;;;6.05;1.92;;;;;;;;;;5041398;28;20049;-77